Lac Ste. Marie, Canada
Current Conditions -  °F | °C
As of 6:00 PM on Wednesday 26 Nov 2014 (Local Time) from CYND Reporting Station
Broken Clouds Broken Clouds  
Wind Chill: -5°   Ceiling: 10000
Heat Index: -2°   Visibility: 15mi
Dew Point: -7°   Wind: 6mph
Humidity: 69%   Direction: 350°N
Pressure: 30.16"   Gusts: NA
Location:  45.97°N, 75.93°W
Report Text: CYND 262300Z 35005KT 15SM FEW040 BKN100 M02/M07 A3016 RMK SC1AC6 SLP216
Loading
Personal Weather Stations






























Interactive Weather Map New forecast layout! Learn more

10-Day Weather Forecast

Advertisements
Track Severe Weather on mobile